Main page
METAR-TAF:

METAR-TAF

Airports :

Heringsdorf Airport

Heringsdorf, Germany

latitude: 53-53N, longitude: 014-09E, elevation: 28 m

Current weather observation

The report was made 30 minutes ago, at 06:50 UTC
Wind 4 kt from the South
Temperature 19°C
Humidity 73%
Pressure 1011 hPa
Visibility 10 km or more
no clouds below 1500 m and no cumulonimbus

METAR: EDAH 170650Z 18004KT CAVOK 19/14 Q1011

Time: 09:20 (07:20 UTC)

Forecast

The report was made 54 minutes ago, at 06:26 UTC
Forecast valid from 17 at 06 UTC to 17 at 15 UTC
Wind 6 kt from the Southwest
Visibility 10 km or more
no clouds below 1500 m and no cumulonimbus
Probability 40% :
Temporary
from 17 at 13 UTC to 17 at 15 UTC
Visibility: 4500 m
Scattered clouds at a height of 1400 ft, Cumulonimbus.
Broken clouds at a height of 2000 ft
thunderstorm, rain,

TAF: EDAH 170626Z 1706/1715 22006KT CAVOK PROB40 TEMPO 1713/1715 4500 TSRA SCT014CB BKN020

Weather observations and forecasts of more than 4000 airports (METAR and TAF reports).

The available stations are represented by yellow and red dots on the map.

Hover mouse over dot to see the name of the station.

Then click to see weather observations and forecasts.

To change the map : click on the green buttons with a black cross to zoom in, on the green button with a dash to zoom out, or on the green arrows for adjacent maps.


METAR-TAF: